Kellerville, Illinois
Current Conditions -  °F | °C
As of 11:54 PM on Friday 24 Oct 2014 (Local Time) from KUIN Reporting Station
Clear Clear  
Wind Chill: 61°   Ceiling: Unl
Heat Index: 61°   Visibility: 9mi
Dew Point: 57°   Wind: 6mph
Humidity: 87%   Direction: 230°SW
Pressure: 29.96"   Gusts: NA
Location:  39.9716°N, 90.933°W
Report Text: KUIN 250454Z AUTO 23005KT 9SM CLR 16/14 A2996 RMK AO2 SLP142 T01610139
Loading
Personal Weather Stations






























Interactive Weather Map
Tropical Storm Tracking
New forecast layout! Learn more

10-Day Weather Forecast

Advertisements
Track Severe Weather on mobile